sensor_id;sensor_type;location;lat;lon;timestamp;temperature;humidity
69944;DHT22;57257;48.408;-4.498;2022-07-29T00:00:10;21.43;56.39
69944;DHT22;57257;48.408;-4.498;2022-07-29T00:02:36;21.38;56.75
69944;DHT22;57257;48.408;-4.498;2022-07-29T00:05:02;21.37;56.71
69944;DHT22;57257;48.408;-4.498;2022-07-29T00:07:28;21.37;56.82
69944;DHT22;57257;48.408;-4.498;2022-07-29T00:09:53;21.33;57.10
69944;DHT22;57257;48.408;-4.498;2022-07-29T00:12:20;21.28;57.28
69944;DHT22;57257;48.408;-4.498;2022-07-29T00:14:46;21.24;57.45
69944;DHT22;57257;48.408;-4.498;2022-07-29T00:17:11;21.23;57.42
69944;DHT22;57257;48.408;-4.498;2022-07-29T00:19:37;21.23;57.54
69944;DHT22;57257;48.408;-4.498;2022-07-29T00:22:02;21.23;57.75
69944;DHT22;57257;48.408;-4.498;2022-07-29T00:24:27;21.22;57.84
69944;DHT22;57257;48.408;-4.498;2022-07-29T00:26:53;21.19;57.73
69944;DHT22;57257;48.408;-4.498;2022-07-29T00:29:18;21.14;57.85
69944;DHT22;57257;48.408;-4.498;2022-07-29T00:31:44;21.14;58.24
69944;DHT22;57257;48.408;-4.498;2022-07-29T00:34:09;21.14;58.21
69944;DHT22;57257;48.408;-4.498;2022-07-29T00:36:55;21.10;58.45
69944;DHT22;57257;48.408;-4.498;2022-07-29T00:39:20;21.08;58.55
69944;DHT22;57257;48.408;-4.498;2022-07-29T00:41:46;21.06;58.58
69944;DHT22;57257;48.408;-4.498;2022-07-29T00:44:11;21.04;58.74
69944;DHT22;57257;48.408;-4.498;2022-07-29T00:46:37;21.03;58.62
69944;DHT22;57257;48.408;-4.498;2022-07-29T00:49:02;20.99;58.80
69944;DHT22;57257;48.408;-4.498;2022-07-29T00:51:28;20.95;59.09
69944;DHT22;57257;48.408;-4.498;2022-07-29T00:53:54;20.95;59.38
69944;DHT22;57257;48.408;-4.498;2022-07-29T00:56:19;20.93;59.46
69944;DHT22;57257;48.408;-4.498;2022-07-29T00:58:46;20.92;59.75
69944;DHT22;57257;48.408;-4.498;2022-07-29T01:01:13;20.93;59.68
69944;DHT22;57257;48.408;-4.498;2022-07-29T01:03:38;20.92;59.64
69944;DHT22;57257;48.408;-4.498;2022-07-29T01:06:04;20.90;59.66
69944;DHT22;57257;48.408;-4.498;2022-07-29T01:08:31;20.87;59.69
69944;DHT22;57257;48.408;-4.498;2022-07-29T01:10:58;20.87;59.82
69944;DHT22;57257;48.408;-4.498;2022-07-29T01:13:25;20.85;60.01
69944;DHT22;57257;48.408;-4.498;2022-07-29T01:15:59;20.83;59.90
69944;DHT22;57257;48.408;-4.498;2022-07-29T01:18:42;20.80;60.39
69944;DHT22;57257;48.408;-4.498;2022-07-29T01:21:37;20.76;60.43
69944;DHT22;57257;48.408;-4.498;2022-07-29T01:29:50;20.66;60.90
69944;DHT22;57257;48.408;-4.498;2022-07-29T01:32:23;20.63;60.89
69944;DHT22;57257;48.408;-4.498;2022-07-29T01:35:12;20.65;61.49
69944;DHT22;57257;48.408;-4.498;2022-07-29T01:37:48;20.62;61.48
69944;DHT22;57257;48.408;-4.498;2022-07-29T01:40:30;20.63;61.42
69944;DHT22;57257;48.408;-4.498;2022-07-29T01:43:00;20.61;61.77
69944;DHT22;57257;48.408;-4.498;2022-07-29T01:45:43;20.59;61.50
69944;DHT22;57257;48.408;-4.498;2022-07-29T01:48:45;20.57;61.90
69944;DHT22;57257;48.408;-4.498;2022-07-29T01:51:20;20.55;62.08
69944;DHT22;57257;48.408;-4.498;2022-07-29T01:54:10;20.53;61.70
69944;DHT22;57257;48.408;-4.498;2022-07-29T01:56:38;20.53;61.95
69944;DHT22;57257;48.408;-4.498;2022-07-29T01:59:05;20.53;62.10
69944;DHT22;57257;48.408;-4.498;2022-07-29T02:01:33;20.49;62.03
69944;DHT22;57257;48.408;-4.498;2022-07-29T02:04:02;20.49;62.16
69944;DHT22;57257;48.408;-4.498;2022-07-29T02:06:31;20.46;62.35
69944;DHT22;57257;48.408;-4.498;2022-07-29T02:08:58;20.46;62.34
69944;DHT22;57257;48.408;-4.498;2022-07-29T02:11:24;20.43;62.59
69944;DHT22;57257;48.408;-4.498;2022-07-29T02:13:52;20.41;62.75
69944;DHT22;57257;48.408;-4.498;2022-07-29T02:16:21;20.38;62.61
69944;DHT22;57257;48.408;-4.498;2022-07-29T02:18:49;20.35;62.87
69944;DHT22;57257;48.408;-4.498;2022-07-29T02:21:20;20.32;62.75
69944;DHT22;57257;48.408;-4.498;2022-07-29T02:23:48;20.31;62.95
69944;DHT22;57257;48.408;-4.498;2022-07-29T02:26:14;20.29;63.07
69944;DHT22;57257;48.408;-4.498;2022-07-29T02:28:40;20.28;63.23
69944;DHT22;57257;48.408;-4.498;2022-07-29T02:31:07;20.28;63.10
69944;DHT22;57257;48.408;-4.498;2022-07-29T02:33:33;20.25;63.17
69944;DHT22;57257;48.408;-4.498;2022-07-29T02:36:00;20.21;63.39
69944;DHT22;57257;48.408;-4.498;2022-07-29T02:38:28;20.19;63.48
69944;DHT22;57257;48.408;-4.498;2022-07-29T02:41:43;20.19;63.31
69944;DHT22;57257;48.408;-4.498;2022-07-29T02:44:14;20.14;63.62
69944;DHT22;57257;48.408;-4.498;2022-07-29T02:47:04;20.11;63.88
69944;DHT22;57257;48.408;-4.498;2022-07-29T02:52:33;20.12;63.93
69944;DHT22;57257;48.408;-4.498;2022-07-29T02:55:11;20.11;63.92
69944;DHT22;57257;48.408;-4.498;2022-07-29T02:57:46;20.09;63.99
69944;DHT22;57257;48.408;-4.498;2022-07-29T03:00:13;20.07;64.08
69944;DHT22;57257;48.408;-4.498;2022-07-29T03:02:45;20.02;64.16
69944;DHT22;57257;48.408;-4.498;2022-07-29T03:05:15;20.00;64.20
69944;DHT22;57257;48.408;-4.498;2022-07-29T03:07:46;19.95;64.59
69944;DHT22;57257;48.408;-4.498;2022-07-29T03:10:12;19.95;64.66
69944;DHT22;57257;48.408;-4.498;2022-07-29T03:12:39;19.91;64.62
69944;DHT22;57257;48.408;-4.498;2022-07-29T03:15:06;19.90;64.74
69944;DHT22;57257;48.408;-4.498;2022-07-29T03:17:31;19.88;64.78
69944;DHT22;57257;48.408;-4.498;2022-07-29T03:19:58;19.90;64.97
69944;DHT22;57257;48.408;-4.498;2022-07-29T03:22:24;19.88;64.80
69944;DHT22;57257;48.408;-4.498;2022-07-29T03:24:49;19.87;65.09
69944;DHT22;57257;48.408;-4.498;2022-07-29T03:27:15;19.85;64.98
69944;DHT22;57257;48.408;-4.498;2022-07-29T03:29:40;19.85;65.01
69944;DHT22;57257;48.408;-4.498;2022-07-29T03:32:06;19.84;65.25
69944;DHT22;57257;48.408;-4.498;2022-07-29T03:34:32;19.81;65.15
69944;DHT22;57257;48.408;-4.498;2022-07-29T03:36:57;19.81;65.41
69944;DHT22;57257;48.408;-4.498;2022-07-29T03:39:25;19.78;65.52
69944;DHT22;57257;48.408;-4.498;2022-07-29T03:41:55;19.77;65.64
69944;DHT22;57257;48.408;-4.498;2022-07-29T03:44:22;19.75;65.81
69944;DHT22;57257;48.408;-4.498;2022-07-29T03:46:50;19.77;65.89
69944;DHT22;57257;48.408;-4.498;2022-07-29T03:49:18;19.74;65.71
69944;DHT22;57257;48.408;-4.498;2022-07-29T03:51:44;19.71;65.90
69944;DHT22;57257;48.408;-4.498;2022-07-29T03:54:10;19.70;65.89
69944;DHT22;57257;48.408;-4.498;2022-07-29T03:56:40;19.70;66.08
69944;DHT22;57257;48.408;-4.498;2022-07-29T03:59:06;19.66;66.40
69944;DHT22;57257;48.408;-4.498;2022-07-29T04:01:33;19.63;66.28
69944;DHT22;57257;48.408;-4.498;2022-07-29T04:04:00;19.60;66.67
69944;DHT22;57257;48.408;-4.498;2022-07-29T04:06:26;19.58;66.40
69944;DHT22;57257;48.408;-4.498;2022-07-29T04:08:51;19.54;66.65
69944;DHT22;57257;48.408;-4.498;2022-07-29T04:11:17;19.51;66.73
69944;DHT22;57257;48.408;-4.498;2022-07-29T04:13:43;19.47;66.79
69944;DHT22;57257;48.408;-4.498;2022-07-29T04:16:08;19.43;67.00
69944;DHT22;57257;48.408;-4.498;2022-07-29T04:18:33;19.43;66.97
69944;DHT22;57257;48.408;-4.498;2022-07-29T04:20:59;19.43;67.14
69944;DHT22;57257;48.408;-4.498;2022-07-29T04:23:27;19.40;67.21
69944;DHT22;57257;48.408;-4.498;2022-07-29T04:25:52;19.34;67.39
69944;DHT22;57257;48.408;-4.498;2022-07-29T04:28:18;19.33;67.47
69944;DHT22;57257;48.408;-4.498;2022-07-29T04:30:43;19.28;67.61
69944;DHT22;57257;48.408;-4.498;2022-07-29T04:33:09;19.30;67.43
69944;DHT22;57257;48.408;-4.498;2022-07-29T04:35:36;19.31;67.71
69944;DHT22;57257;48.408;-4.498;2022-07-29T04:38:03;19.28;67.74
69944;DHT22;57257;48.408;-4.498;2022-07-29T04:40:28;19.33;67.75
69944;DHT22;57257;48.408;-4.498;2022-07-29T04:42:54;19.30;68.04
69944;DHT22;57257;48.408;-4.498;2022-07-29T04:45:20;19.30;67.90
69944;DHT22;57257;48.408;-4.498;2022-07-29T04:47:45;19.27;68.13
69944;DHT22;57257;48.408;-4.498;2022-07-29T04:50:11;19.30;68.37
69944;DHT22;57257;48.408;-4.498;2022-07-29T04:52:36;19.28;68.44
69944;DHT22;57257;48.408;-4.498;2022-07-29T04:55:03;19.28;68.22
69944;DHT22;57257;48.408;-4.498;2022-07-29T04:57:29;19.30;68.66
69944;DHT22;57257;48.408;-4.498;2022-07-29T04:59:55;19.30;68.53
69944;DHT22;57257;48.408;-4.498;2022-07-29T05:02:20;19.30;68.59
69944;DHT22;57257;48.408;-4.498;2022-07-29T05:04:47;19.31;68.69
69944;DHT22;57257;48.408;-4.498;2022-07-29T05:07:12;19.26;68.75
69944;DHT22;57257;48.408;-4.498;2022-07-29T05:09:38;19.27;68.69
69944;DHT22;57257;48.408;-4.498;2022-07-29T05:12:03;19.26;68.84
69944;DHT22;57257;48.408;-4.498;2022-07-29T05:14:29;19.28;68.75
69944;DHT22;57257;48.408;-4.498;2022-07-29T05:16:54;19.28;68.78
69944;DHT22;57257;48.408;-4.498;2022-07-29T05:19:22;19.28;68.89
69944;DHT22;57257;48.408;-4.498;2022-07-29T05:21:48;19.28;68.77
69944;DHT22;57257;48.408;-4.498;2022-07-29T05:24:13;19.30;68.94
69944;DHT22;57257;48.408;-4.498;2022-07-29T05:26:39;19.33;68.73
69944;DHT22;57257;48.408;-4.498;2022-07-29T05:29:05;19.34;68.89
69944;DHT22;57257;48.408;-4.498;2022-07-29T05:31:30;19.38;68.90
69944;DHT22;57257;48.408;-4.498;2022-07-29T05:33:55;19.38;68.86
69944;DHT22;57257;48.408;-4.498;2022-07-29T05:36:21;19.44;68.73
69944;DHT22;57257;48.408;-4.498;2022-07-29T05:38:46;19.50;68.89
69944;DHT22;57257;48.408;-4.498;2022-07-29T05:41:12;19.60;68.84
69944;DHT22;57257;48.408;-4.498;2022-07-29T05:43:37;19.70;68.66
69944;DHT22;57257;48.408;-4.498;2022-07-29T05:46:03;19.80;68.58
69944;DHT22;57257;48.408;-4.498;2022-07-29T05:48:28;19.91;68.41
69944;DHT22;57257;48.408;-4.498;2022-07-29T05:50:54;20.02;68.16
69944;DHT22;57257;48.408;-4.498;2022-07-29T05:53:19;20.08;68.02
69944;DHT22;57257;48.408;-4.498;2022-07-29T05:55:45;20.11;67.93
69944;DHT22;57257;48.408;-4.498;2022-07-29T05:58:10;20.18;68.03
69944;DHT22;57257;48.408;-4.498;2022-07-29T06:00:36;20.29;67.86
69944;DHT22;57257;48.408;-4.498;2022-07-29T06:03:01;20.39;67.64
69944;DHT22;57257;48.408;-4.498;2022-07-29T06:05:27;20.53;67.62
69944;DHT22;57257;48.408;-4.498;2022-07-29T06:07:52;20.71;67.27
69944;DHT22;57257;48.408;-4.498;2022-07-29T06:10:18;20.86;67.03
69944;DHT22;57257;48.408;-4.498;2022-07-29T06:12:44;21.07;66.73
69944;DHT22;57257;48.408;-4.498;2022-07-29T06:15:09;21.26;66.37
69944;DHT22;57257;48.408;-4.498;2022-07-29T06:17:35;21.47;65.97
69944;DHT22;57257;48.408;-4.498;2022-07-29T06:20:01;21.62;65.61
69944;DHT22;57257;48.408;-4.498;2022-07-29T06:22:26;21.77;65.28
69944;DHT22;57257;48.408;-4.498;2022-07-29T06:24:52;21.95;65.03
69944;DHT22;57257;48.408;-4.498;2022-07-29T06:27:17;22.08;64.63
69944;DHT22;57257;48.408;-4.498;2022-07-29T06:29:43;22.21;64.33
69944;DHT22;57257;48.408;-4.498;2022-07-29T06:32:08;22.35;64.04
69944;DHT22;57257;48.408;-4.498;2022-07-29T06:34:35;22.49;63.72
69944;DHT22;57257;48.408;-4.498;2022-07-29T06:37:00;22.60;63.37
69944;DHT22;57257;48.408;-4.498;2022-07-29T06:39:27;22.75;63.05
69944;DHT22;57257;48.408;-4.498;2022-07-29T06:41:53;22.89;62.57
69944;DHT22;57257;48.408;-4.498;2022-07-29T06:44:19;23.00;62.24
69944;DHT22;57257;48.408;-4.498;2022-07-29T06:46:44;23.07;62.00
69944;DHT22;57257;48.408;-4.498;2022-07-29T06:49:12;23.17;61.59
69944;DHT22;57257;48.408;-4.498;2022-07-29T06:51:39;23.30;61.29
69944;DHT22;57257;48.408;-4.498;2022-07-29T06:54:04;23.43;60.88
69944;DHT22;57257;48.408;-4.498;2022-07-29T06:56:31;23.64;60.51
69944;DHT22;57257;48.408;-4.498;2022-07-29T06:58:57;23.94;59.64
69944;DHT22;57257;48.408;-4.498;2022-07-29T07:01:22;24.16;59.04
69944;DHT22;57257;48.408;-4.498;2022-07-29T07:03:48;24.25;58.46
69944;DHT22;57257;48.408;-4.498;2022-07-29T07:06:13;24.22;57.59
69944;DHT22;57257;48.408;-4.498;2022-07-29T07:08:38;24.22;57.43
69944;DHT22;57257;48.408;-4.498;2022-07-29T07:11:04;24.22;56.91
69944;DHT22;57257;48.408;-4.498;2022-07-29T07:13:31;24.23;56.92
69944;DHT22;57257;48.408;-4.498;2022-07-29T07:16:00;24.35;56.80
69944;DHT22;57257;48.408;-4.498;2022-07-29T07:18:25;24.46;56.52
69944;DHT22;57257;48.408;-4.498;2022-07-29T07:20:51;24.51;55.88
69944;DHT22;57257;48.408;-4.498;2022-07-29T07:23:16;24.48;55.57
69944;DHT22;57257;48.408;-4.498;2022-07-29T07:25:42;24.51;55.61
69944;DHT22;57257;48.408;-4.498;2022-07-29T07:28:07;24.57;55.50
69944;DHT22;57257;48.408;-4.498;2022-07-29T07:30:33;24.62;55.09
69944;DHT22;57257;48.408;-4.498;2022-07-29T07:32:59;24.70;54.86
69944;DHT22;57257;48.408;-4.498;2022-07-29T07:35:25;24.86;54.22
69944;DHT22;57257;48.408;-4.498;2022-07-29T07:37:53;24.87;53.76
69944;DHT22;57257;48.408;-4.498;2022-07-29T07:40:18;24.93;53.58
69944;DHT22;57257;48.408;-4.498;2022-07-29T07:42:44;25.03;53.12
69944;DHT22;57257;48.408;-4.498;2022-07-29T07:45:09;25.07;52.91
69944;DHT22;57257;48.408;-4.498;2022-07-29T07:47:37;25.14;52.54
69944;DHT22;57257;48.408;-4.498;2022-07-29T07:50:07;25.24;52.54
69944;DHT22;57257;48.408;-4.498;2022-07-29T07:52:33;25.31;52.31
69944;DHT22;57257;48.408;-4.498;2022-07-29T07:54:59;25.38;52.04
69944;DHT22;57257;48.408;-4.498;2022-07-29T07:57:25;25.35;51.91
69944;DHT22;57257;48.408;-4.498;2022-07-29T07:59:50;25.42;52.20
69944;DHT22;57257;48.408;-4.498;2022-07-29T08:02:15;25.50;51.82
69944;DHT22;57257;48.408;-4.498;2022-07-29T08:04:41;25.55;52.06
69944;DHT22;57257;48.408;-4.498;2022-07-29T08:07:07;25.60;52.14
69944;DHT22;57257;48.408;-4.498;2022-07-29T08:09:34;25.71;51.95
69944;DHT22;57257;48.408;-4.498;2022-07-29T08:12:00;25.80;51.38
69944;DHT22;57257;48.408;-4.498;2022-07-29T08:14:29;25.80;51.16
69944;DHT22;57257;48.408;-4.498;2022-07-29T08:16:54;25.85;51.10
69944;DHT22;57257;48.408;-4.498;2022-07-29T08:19:20;25.95;50.14
69944;DHT22;57257;48.408;-4.498;2022-07-29T08:21:45;26.06;49.65
69944;DHT22;57257;48.408;-4.498;2022-07-29T08:24:11;26.05;49.24
69944;DHT22;57257;48.408;-4.498;2022-07-29T08:26:55;26.12;49.18
69944;DHT22;57257;48.408;-4.498;2022-07-29T08:29:20;26.14;48.91
69944;DHT22;57257;48.408;-4.498;2022-07-29T08:31:45;26.19;49.05
69944;DHT22;57257;48.408;-4.498;2022-07-29T08:34:11;26.24;49.33
69944;DHT22;57257;48.408;-4.498;2022-07-29T08:36:37;26.35;49.33
69944;DHT22;57257;48.408;-4.498;2022-07-29T08:39:04;26.43;49.16
69944;DHT22;57257;48.408;-4.498;2022-07-29T08:41:29;26.45;48.64
69944;DHT22;57257;48.408;-4.498;2022-07-29T08:43:55;26.50;48.32
69944;DHT22;57257;48.408;-4.498;2022-07-29T08:46:22;26.57;47.75
69944;DHT22;57257;48.408;-4.498;2022-07-29T08:48:48;26.63;47.68
69944;DHT22;57257;48.408;-4.498;2022-07-29T08:51:21;26.60;47.38
69944;DHT22;57257;48.408;-4.498;2022-07-29T08:53:48;26.69;47.47
69944;DHT22;57257;48.408;-4.498;2022-07-29T08:56:15;26.76;46.97
69944;DHT22;57257;48.408;-4.498;2022-07-29T08:58:42;26.80;46.61
69944;DHT22;57257;48.408;-4.498;2022-07-29T09:01:10;26.84;46.87
69944;DHT22;57257;48.408;-4.498;2022-07-29T09:03:38;26.96;46.58
69944;DHT22;57257;48.408;-4.498;2022-07-29T09:06:05;27.04;46.74
69944;DHT22;57257;48.408;-4.498;2022-07-29T09:08:31;27.07;46.06
69944;DHT22;57257;48.408;-4.498;2022-07-29T09:10:57;27.10;46.22
69944;DHT22;57257;48.408;-4.498;2022-07-29T09:13:23;27.24;45.91
69944;DHT22;57257;48.408;-4.498;2022-07-29T09:15:50;27.30;46.01
69944;DHT22;57257;48.408;-4.498;2022-07-29T09:18:34;27.41;44.97
69944;DHT22;57257;48.408;-4.498;2022-07-29T09:21:01;27.50;44.98
69944;DHT22;57257;48.408;-4.498;2022-07-29T09:24:07;27.47;44.57
69944;DHT22;57257;48.408;-4.498;2022-07-29T09:26:53;27.51;44.71
69944;DHT22;57257;48.408;-4.498;2022-07-29T09:29:23;27.52;44.64
69944;DHT22;57257;48.408;-4.498;2022-07-29T09:31:51;27.57;44.38
69944;DHT22;57257;48.408;-4.498;2022-07-29T09:34:24;27.52;43.74
69944;DHT22;57257;48.408;-4.498;2022-07-29T09:36:51;27.52;43.92
69944;DHT22;57257;48.408;-4.498;2022-07-29T09:39:38;27.57;44.05
69944;DHT22;57257;48.408;-4.498;2022-07-29T09:42:11;27.66;43.91
69944;DHT22;57257;48.408;-4.498;2022-07-29T09:44:49;27.80;43.82
69944;DHT22;57257;48.408;-4.498;2022-07-29T09:47:16;27.88;43.92
69944;DHT22;57257;48.408;-4.498;2022-07-29T09:49:58;27.95;43.79
69944;DHT22;57257;48.408;-4.498;2022-07-29T09:52:26;28.02;43.48
69944;DHT22;57257;48.408;-4.498;2022-07-29T09:54:52;28.01;43.10
69944;DHT22;57257;48.408;-4.498;2022-07-29T09:57:28;28.06;43.35
69944;DHT22;57257;48.408;-4.498;2022-07-29T10:00:04;28.08;43.32
69944;DHT22;57257;48.408;-4.498;2022-07-29T10:02:33;28.15;42.79
69944;DHT22;57257;48.408;-4.498;2022-07-29T10:05:01;28.19;42.86
69944;DHT22;57257;48.408;-4.498;2022-07-29T10:07:49;28.22;42.75
69944;DHT22;57257;48.408;-4.498;2022-07-29T10:10:39;28.27;42.65
69944;DHT22;57257;48.408;-4.498;2022-07-29T10:13:07;28.31;42.08
69944;DHT22;57257;48.408;-4.498;2022-07-29T10:15:36;28.29;41.78
69944;DHT22;57257;48.408;-4.498;2022-07-29T10:18:04;28.29;41.65
69944;DHT22;57257;48.408;-4.498;2022-07-29T10:20:30;28.32;41.47
69944;DHT22;57257;48.408;-4.498;2022-07-29T10:22:56;28.42;41.47
69944;DHT22;57257;48.408;-4.498;2022-07-29T10:25:22;28.43;41.46
69944;DHT22;57257;48.408;-4.498;2022-07-29T10:27:49;28.50;41.04
69944;DHT22;57257;48.408;-4.498;2022-07-29T10:30:17;28.47;41.19
69944;DHT22;57257;48.408;-4.498;2022-07-29T10:33:20;28.56;40.98
69944;DHT22;57257;48.408;-4.498;2022-07-29T10:36:04;28.55;41.29
69944;DHT22;57257;48.408;-4.498;2022-07-29T10:38:49;28.61;41.24
69944;DHT22;57257;48.408;-4.498;2022-07-29T10:44:22;28.64;40.73
69944;DHT22;57257;48.408;-4.498;2022-07-29T10:46:48;28.67;40.57
69944;DHT22;57257;48.408;-4.498;2022-07-29T10:49:24;28.71;40.57
69944;DHT22;57257;48.408;-4.498;2022-07-29T10:57:32;28.80;40.23
69944;DHT22;57257;48.408;-4.498;2022-07-29T11:02:50;28.83;40.19
69944;DHT22;57257;48.408;-4.498;2022-07-29T11:05:19;28.90;39.93
69944;DHT22;57257;48.408;-4.498;2022-07-29T11:10:41;28.96;39.78
69944;DHT22;57257;48.408;-4.498;2022-07-29T11:13:07;28.97;39.42
69944;DHT22;57257;48.408;-4.498;2022-07-29T11:15:55;29.00;39.53
69944;DHT22;57257;48.408;-4.498;2022-07-29T11:18:21;29.01;39.17
69944;DHT22;57257;48.408;-4.498;2022-07-29T11:20:48;28.96;39.16
69944;DHT22;57257;48.408;-4.498;2022-07-29T11:31:41;29.15;38.98
69944;DHT22;57257;48.408;-4.498;2022-07-29T11:34:26;29.24;38.75
69944;DHT22;57257;48.408;-4.498;2022-07-29T11:39:32;29.39;38.72
69944;DHT22;57257;48.408;-4.498;2022-07-29T11:45:04;29.22;38.63
69944;DHT22;57257;48.408;-4.498;2022-07-29T11:47:39;29.18;38.81
69944;DHT22;57257;48.408;-4.498;2022-07-29T11:50:12;29.21;38.82
69944;DHT22;57257;48.408;-4.498;2022-07-29T11:52:39;29.31;38.60
69944;DHT22;57257;48.408;-4.498;2022-07-29T11:55:17;29.38;38.54
69944;DHT22;57257;48.408;-4.498;2022-07-29T11:57:47;29.42;38.39
69944;DHT22;57257;48.408;-4.498;2022-07-29T12:00:22;29.50;38.28
69944;DHT22;57257;48.408;-4.498;2022-07-29T12:02:48;29.54;38.13
69944;DHT22;57257;48.408;-4.498;2022-07-29T12:05:13;29.55;38.06
69944;DHT22;57257;48.408;-4.498;2022-07-29T12:07:39;29.65;38.09
69944;DHT22;57257;48.408;-4.498;2022-07-29T12:10:06;29.69;38.11
69944;DHT22;57257;48.408;-4.498;2022-07-29T12:12:32;29.62;38.31
69944;DHT22;57257;48.408;-4.498;2022-07-29T12:14:57;29.57;38.42
69944;DHT22;57257;48.408;-4.498;2022-07-29T12:17:29;29.51;38.43
69944;DHT22;57257;48.408;-4.498;2022-07-29T12:19:56;29.52;38.40
69944;DHT22;57257;48.408;-4.498;2022-07-29T12:22:30;29.59;38.38
69944;DHT22;57257;48.408;-4.498;2022-07-29T12:25:01;29.64;38.31
69944;DHT22;57257;48.408;-4.498;2022-07-29T12:27:28;29.65;38.04
69944;DHT22;57257;48.408;-4.498;2022-07-29T12:29:57;29.64;37.95
69944;DHT22;57257;48.408;-4.498;2022-07-29T12:32:34;29.64;38.16
69944;DHT22;57257;48.408;-4.498;2022-07-29T12:35:03;29.74;38.33
69944;DHT22;57257;48.408;-4.498;2022-07-29T12:37:29;29.78;38.18
69944;DHT22;57257;48.408;-4.498;2022-07-29T12:39:55;29.85;38.53
69944;DHT22;57257;48.408;-4.498;2022-07-29T12:42:20;29.95;38.48
69944;DHT22;57257;48.408;-4.498;2022-07-29T12:44:50;30.06;38.51
69944;DHT22;57257;48.408;-4.498;2022-07-29T12:47:16;30.16;38.23
69944;DHT22;57257;48.408;-4.498;2022-07-29T12:49:43;30.15;38.08
69944;DHT22;57257;48.408;-4.498;2022-07-29T12:52:29;30.10;37.94
69944;DHT22;57257;48.408;-4.498;2022-07-29T12:54:55;30.15;38.14
69944;DHT22;57257;48.408;-4.498;2022-07-29T12:57:21;30.19;37.88
69944;DHT22;57257;48.408;-4.498;2022-07-29T13:00:07;30.22;37.82
69944;DHT22;57257;48.408;-4.498;2022-07-29T13:02:36;30.22;38.06
69944;DHT22;57257;48.408;-4.498;2022-07-29T13:05:04;30.32;37.96
69944;DHT22;57257;48.408;-4.498;2022-07-29T13:07:31;30.44;37.93
69944;DHT22;57257;48.408;-4.498;2022-07-29T13:10:17;30.56;37.53
69944;DHT22;57257;48.408;-4.498;2022-07-29T13:13:08;30.59;37.51
69944;DHT22;57257;48.408;-4.498;2022-07-29T13:15:39;30.63;36.89
69944;DHT22;57257;48.408;-4.498;2022-07-29T13:18:25;30.59;37.33
69944;DHT22;57257;48.408;-4.498;2022-07-29T13:20:50;30.63;36.95
69944;DHT22;57257;48.408;-4.498;2022-07-29T13:23:16;30.56;37.01
69944;DHT22;57257;48.408;-4.498;2022-07-29T13:25:41;30.60;36.98
69944;DHT22;57257;48.408;-4.498;2022-07-29T13:28:07;30.67;36.63
69944;DHT22;57257;48.408;-4.498;2022-07-29T13:30:33;30.66;36.47
69944;DHT22;57257;48.408;-4.498;2022-07-29T13:32:58;30.61;36.89
69944;DHT22;57257;48.408;-4.498;2022-07-29T13:35:24;30.71;36.69
69944;DHT22;57257;48.408;-4.498;2022-07-29T13:37:49;30.83;36.48
69944;DHT22;57257;48.408;-4.498;2022-07-29T13:40:15;30.93;36.55
69944;DHT22;57257;48.408;-4.498;2022-07-29T13:42:40;31.04;36.35
69944;DHT22;57257;48.408;-4.498;2022-07-29T13:45:07;31.11;36.25
69944;DHT22;57257;48.408;-4.498;2022-07-29T13:47:32;31.20;35.92
69944;DHT22;57257;48.408;-4.498;2022-07-29T13:49:58;31.23;35.88
69944;DHT22;57257;48.408;-4.498;2022-07-29T13:52:23;31.35;35.78
69944;DHT22;57257;48.408;-4.498;2022-07-29T13:54:49;31.35;35.17
69944;DHT22;57257;48.408;-4.498;2022-07-29T13:57:15;31.39;35.24
69944;DHT22;57257;48.408;-4.498;2022-07-29T13:59:41;31.37;34.93
69944;DHT22;57257;48.408;-4.498;2022-07-29T14:02:10;31.34;34.81
69944;DHT22;57257;48.408;-4.498;2022-07-29T14:04:36;31.37;35.08
69944;DHT22;57257;48.408;-4.498;2022-07-29T14:07:02;31.44;35.05
69944;DHT22;57257;48.408;-4.498;2022-07-29T14:09:27;31.45;34.73
69944;DHT22;57257;48.408;-4.498;2022-07-29T14:11:52;31.46;34.51
69944;DHT22;57257;48.408;-4.498;2022-07-29T14:14:19;31.45;34.59
69944;DHT22;57257;48.408;-4.498;2022-07-29T14:16:44;31.41;34.78
69944;DHT22;57257;48.408;-4.498;2022-07-29T14:19:10;31.54;34.73
69944;DHT22;57257;48.408;-4.498;2022-07-29T14:21:36;31.64;34.63
69944;DHT22;57257;48.408;-4.498;2022-07-29T14:24:01;31.72;34.24
69944;DHT22;57257;48.408;-4.498;2022-07-29T14:26:27;31.72;34.17
69944;DHT22;57257;48.408;-4.498;2022-07-29T14:28:52;31.74;34.24
69944;DHT22;57257;48.408;-4.498;2022-07-29T14:31:18;31.68;33.70
69944;DHT22;57257;48.408;-4.498;2022-07-29T14:33:43;31.58;33.82
69944;DHT22;57257;48.408;-4.498;2022-07-29T14:36:09;31.54;34.06
69944;DHT22;57257;48.408;-4.498;2022-07-29T14:38:35;31.61;34.03
69944;DHT22;57257;48.408;-4.498;2022-07-29T14:41:01;31.75;34.19
69944;DHT22;57257;48.408;-4.498;2022-07-29T14:43:26;31.95;33.76
69944;DHT22;57257;48.408;-4.498;2022-07-29T14:45:52;31.96;33.52
69944;DHT22;57257;48.408;-4.498;2022-07-29T14:48:17;31.99;33.41
69944;DHT22;57257;48.408;-4.498;2022-07-29T14:50:43;32.02;33.50
69944;DHT22;57257;48.408;-4.498;2022-07-29T14:53:08;32.10;33.39
69944;DHT22;57257;48.408;-4.498;2022-07-29T14:55:34;32.13;33.47
69944;DHT22;57257;48.408;-4.498;2022-07-29T14:58:00;32.23;33.27
69944;DHT22;57257;48.408;-4.498;2022-07-29T15:00:26;32.25;32.96
69944;DHT22;57257;48.408;-4.498;2022-07-29T15:02:52;32.25;32.99
69944;DHT22;57257;48.408;-4.498;2022-07-29T15:05:18;32.18;32.85
69944;DHT22;57257;48.408;-4.498;2022-07-29T15:07:43;32.12;32.99
69944;DHT22;57257;48.408;-4.498;2022-07-29T15:10:09;32.23;32.76
69944;DHT22;57257;48.408;-4.498;2022-07-29T15:12:34;32.30;32.85
69944;DHT22;57257;48.408;-4.498;2022-07-29T15:15:00;32.36;32.76
69944;DHT22;57257;48.408;-4.498;2022-07-29T15:17:25;32.46;32.74
69944;DHT22;57257;48.408;-4.498;2022-07-29T15:19:51;32.63;32.54
69944;DHT22;57257;48.408;-4.498;2022-07-29T15:22:16;32.74;32.37
69944;DHT22;57257;48.408;-4.498;2022-07-29T15:24:42;32.87;32.19
69944;DHT22;57257;48.408;-4.498;2022-07-29T15:27:08;32.99;32.04
69944;DHT22;57257;48.408;-4.498;2022-07-29T15:29:40;33.14;31.90
69944;DHT22;57257;48.408;-4.498;2022-07-29T15:32:05;33.33;31.71
69944;DHT22;57257;48.408;-4.498;2022-07-29T15:34:31;33.40;31.53
69944;DHT22;57257;48.408;-4.498;2022-07-29T15:36:56;33.54;31.60
69944;DHT22;57257;48.408;-4.498;2022-07-29T15:39:23;33.74;31.43
69944;DHT22;57257;48.408;-4.498;2022-07-29T15:41:49;33.91;30.89
69944;DHT22;57257;48.408;-4.498;2022-07-29T15:44:14;33.95;30.71
69944;DHT22;57257;48.408;-4.498;2022-07-29T15:46:40;34.18;30.77
69944;DHT22;57257;48.408;-4.498;2022-07-29T15:49:24;34.63;30.14
69944;DHT22;57257;48.408;-4.498;2022-07-29T15:51:56;35.08;29.59
69944;DHT22;57257;48.408;-4.498;2022-07-29T15:54:22;35.58;29.04
69944;DHT22;57257;48.408;-4.498;2022-07-29T15:56:47;36.12;28.56
69944;DHT22;57257;48.408;-4.498;2022-07-29T15:59:12;36.76;28.16